Terminal Aerodrome Forecast
Issued by NWS

Home | Current Version | Previous Version | Text Only | Print | Product List | Glossary On
Versions: 1 2 3 4 5 6 7 8 9 10 11 12 13 14 15 16 17
326
FTUS45 KTFX 171728
TAFHLN
TAF
KHLN 171728Z 1718/1818 VRB03KT P6SM SCT150 BKN200
      TEMPO 1718/1721 5SM HZ
     FM181500 22004KT 5SM HZ SCT060 BKN150=

USA.gov is the U.S. government's official web portal to all federal, state and local government web resources and services.